sensor_id;sensor_type;location;lat;lon;timestamp;temperature;humidity
18218;DHT22;9234;49.344;11.120;2023-02-19T00:01:53;9.70;99.90
18218;DHT22;9234;49.344;11.120;2023-02-19T00:04:22;9.70;99.90
18218;DHT22;9234;49.344;11.120;2023-02-19T00:06:50;9.70;99.90
18218;DHT22;9234;49.344;11.120;2023-02-19T00:09:19;9.60;99.90
18218;DHT22;9234;49.344;11.120;2023-02-19T00:11:48;9.60;99.90
18218;DHT22;9234;49.344;11.120;2023-02-19T00:14:18;9.60;99.90
18218;DHT22;9234;49.344;11.120;2023-02-19T00:16:48;9.60;99.90
18218;DHT22;9234;49.344;11.120;2023-02-19T00:19:18;9.70;99.90
18218;DHT22;9234;49.344;11.120;2023-02-19T00:21:49;9.60;99.90
18218;DHT22;9234;49.344;11.120;2023-02-19T00:24:20;9.60;99.90
18218;DHT22;9234;49.344;11.120;2023-02-19T00:26:49;9.50;99.90
18218;DHT22;9234;49.344;11.120;2023-02-19T00:29:19;9.50;99.90
18218;DHT22;9234;49.344;11.120;2023-02-19T00:31:49;9.50;99.90
18218;DHT22;9234;49.344;11.120;2023-02-19T00:34:17;9.50;99.90
18218;DHT22;9234;49.344;11.120;2023-02-19T00:36:45;9.50;99.90
18218;DHT22;9234;49.344;11.120;2023-02-19T00:39:15;9.50;99.90
18218;DHT22;9234;49.344;11.120;2023-02-19T00:41:46;9.50;99.90
18218;DHT22;9234;49.344;11.120;2023-02-19T00:44:14;9.50;99.90
18218;DHT22;9234;49.344;11.120;2023-02-19T00:46:44;9.50;99.90
18218;DHT22;9234;49.344;11.120;2023-02-19T00:49:16;9.50;99.90
18218;DHT22;9234;49.344;11.120;2023-02-19T00:51:46;9.50;99.90
18218;DHT22;9234;49.344;11.120;2023-02-19T00:54:15;9.50;99.90
18218;DHT22;9234;49.344;11.120;2023-02-19T00:56:45;9.50;99.90
18218;DHT22;9234;49.344;11.120;2023-02-19T00:59:14;9.50;99.90
18218;DHT22;9234;49.344;11.120;2023-02-19T01:01:43;9.50;99.90
18218;DHT22;9234;49.344;11.120;2023-02-19T01:04:12;9.50;99.90
18218;DHT22;9234;49.344;11.120;2023-02-19T01:06:42;9.50;99.90
18218;DHT22;9234;49.344;11.120;2023-02-19T01:09:10;9.40;99.90
18218;DHT22;9234;49.344;11.120;2023-02-19T01:11:40;9.40;99.90
18218;DHT22;9234;49.344;11.120;2023-02-19T01:14:09;9.40;99.90
18218;DHT22;9234;49.344;11.120;2023-02-19T01:16:38;9.40;99.90
18218;DHT22;9234;49.344;11.120;2023-02-19T01:19:06;9.30;99.90
18218;DHT22;9234;49.344;11.120;2023-02-19T01:21:34;9.30;99.90
18218;DHT22;9234;49.344;11.120;2023-02-19T01:24:02;9.30;99.90
18218;DHT22;9234;49.344;11.120;2023-02-19T01:26:32;9.30;99.90
18218;DHT22;9234;49.344;11.120;2023-02-19T01:29:02;9.20;99.90
18218;DHT22;9234;49.344;11.120;2023-02-19T01:31:32;9.20;99.90
18218;DHT22;9234;49.344;11.120;2023-02-19T01:34:02;9.20;99.90
18218;DHT22;9234;49.344;11.120;2023-02-19T01:36:32;9.20;99.90
18218;DHT22;9234;49.344;11.120;2023-02-19T01:39:04;9.20;99.90
18218;DHT22;9234;49.344;11.120;2023-02-19T01:41:36;9.30;99.90
18218;DHT22;9234;49.344;11.120;2023-02-19T01:45:02;9.20;99.90
18218;DHT22;9234;49.344;11.120;2023-02-19T01:47:17;9.20;99.90
18218;DHT22;9234;49.344;11.120;2023-02-19T01:49:50;9.20;99.90
18218;DHT22;9234;49.344;11.120;2023-02-19T01:52:23;9.20;99.90
18218;DHT22;9234;49.344;11.120;2023-02-19T01:54:56;9.20;99.90
18218;DHT22;9234;49.344;11.120;2023-02-19T01:57:29;9.20;99.90
18218;DHT22;9234;49.344;11.120;2023-02-19T02:00:03;9.20;99.90
18218;DHT22;9234;49.344;11.120;2023-02-19T02:02:44;9.20;99.90
18218;DHT22;9234;49.344;11.120;2023-02-19T02:05:29;9.20;99.90
18218;DHT22;9234;49.344;11.120;2023-02-19T02:08:04;9.20;99.90
18218;DHT22;9234;49.344;11.120;2023-02-19T02:10:51;9.30;99.90
18218;DHT22;9234;49.344;11.120;2023-02-19T02:13:20;9.30;99.90
18218;DHT22;9234;49.344;11.120;2023-02-19T02:15:54;9.20;99.90
18218;DHT22;9234;49.344;11.120;2023-02-19T02:18:37;9.30;99.90
18218;DHT22;9234;49.344;11.120;2023-02-19T02:21:38;9.30;99.90
18218;DHT22;9234;49.344;11.120;2023-02-19T02:24:48;9.30;99.90
18218;DHT22;9234;49.344;11.120;2023-02-19T02:27:34;9.30;99.90
18218;DHT22;9234;49.344;11.120;2023-02-19T02:30:26;9.30;99.90
18218;DHT22;9234;49.344;11.120;2023-02-19T02:33:05;9.30;99.90
18218;DHT22;9234;49.344;11.120;2023-02-19T02:35:44;9.30;99.90
18218;DHT22;9234;49.344;11.120;2023-02-19T02:38:20;9.40;99.90
18218;DHT22;9234;49.344;11.120;2023-02-19T02:40:53;9.30;99.90
18218;DHT22;9234;49.344;11.120;2023-02-19T02:43:24;9.40;99.90
18218;DHT22;9234;49.344;11.120;2023-02-19T02:45:54;9.30;99.90
18218;DHT22;9234;49.344;11.120;2023-02-19T02:48:33;9.40;99.90
18218;DHT22;9234;49.344;11.120;2023-02-19T02:51:11;9.40;99.90
18218;DHT22;9234;49.344;11.120;2023-02-19T02:53:52;9.40;99.90
18218;DHT22;9234;49.344;11.120;2023-02-19T02:56:42;9.40;99.90
18218;DHT22;9234;49.344;11.120;2023-02-19T02:59:15;9.40;99.90
18218;DHT22;9234;49.344;11.120;2023-02-19T03:01:49;9.40;99.90
18218;DHT22;9234;49.344;11.120;2023-02-19T03:04:46;9.40;99.90
18218;DHT22;9234;49.344;11.120;2023-02-19T03:07:38;9.30;99.90
18218;DHT22;9234;49.344;11.120;2023-02-19T03:10:18;9.30;99.90
18218;DHT22;9234;49.344;11.120;2023-02-19T03:12:50;9.30;99.90
18218;DHT22;9234;49.344;11.120;2023-02-19T03:15:43;9.30;99.90
18218;DHT22;9234;49.344;11.120;2023-02-19T03:18:36;9.30;99.90
18218;DHT22;9234;49.344;11.120;2023-02-19T03:21:40;9.30;99.90
18218;DHT22;9234;49.344;11.120;2023-02-19T03:24:11;9.30;99.90
18218;DHT22;9234;49.344;11.120;2023-02-19T03:27:01;9.30;99.90
18218;DHT22;9234;49.344;11.120;2023-02-19T03:29:39;9.20;99.90
18218;DHT22;9234;49.344;11.120;2023-02-19T03:32:11;9.30;99.90
18218;DHT22;9234;49.344;11.120;2023-02-19T03:34:47;9.30;99.90
18218;DHT22;9234;49.344;11.120;2023-02-19T03:37:25;9.30;99.90
18218;DHT22;9234;49.344;11.120;2023-02-19T03:39:57;9.20;99.90
18218;DHT22;9234;49.344;11.120;2023-02-19T03:42:35;9.20;99.90
18218;DHT22;9234;49.344;11.120;2023-02-19T03:45:31;9.30;99.90
18218;DHT22;9234;49.344;11.120;2023-02-19T03:48:26;9.30;99.90
18218;DHT22;9234;49.344;11.120;2023-02-19T03:51:06;9.30;99.90
18218;DHT22;9234;49.344;11.120;2023-02-19T03:53:51;9.30;99.90
18218;DHT22;9234;49.344;11.120;2023-02-19T03:56:33;9.30;99.90
18218;DHT22;9234;49.344;11.120;2023-02-19T03:59:09;9.30;99.90
18218;DHT22;9234;49.344;11.120;2023-02-19T04:01:46;9.30;99.90
18218;DHT22;9234;49.344;11.120;2023-02-19T04:04:20;9.40;99.90
18218;DHT22;9234;49.344;11.120;2023-02-19T04:06:56;9.40;99.90
18218;DHT22;9234;49.344;11.120;2023-02-19T04:09:32;9.30;99.90
18218;DHT22;9234;49.344;11.120;2023-02-19T04:12:09;9.30;99.90
18218;DHT22;9234;49.344;11.120;2023-02-19T04:14:42;9.30;99.90
18218;DHT22;9234;49.344;11.120;2023-02-19T04:17:17;9.30;99.90
18218;DHT22;9234;49.344;11.120;2023-02-19T04:19:50;9.30;99.90
18218;DHT22;9234;49.344;11.120;2023-02-19T04:22:21;9.30;99.90
18218;DHT22;9234;49.344;11.120;2023-02-19T04:24:52;9.30;99.90
18218;DHT22;9234;49.344;11.120;2023-02-19T04:27:22;9.30;99.90
18218;DHT22;9234;49.344;11.120;2023-02-19T04:29:50;9.30;99.90
18218;DHT22;9234;49.344;11.120;2023-02-19T04:32:19;9.30;99.90
18218;DHT22;9234;49.344;11.120;2023-02-19T04:34:47;9.30;99.90
18218;DHT22;9234;49.344;11.120;2023-02-19T04:37:15;9.30;99.90
18218;DHT22;9234;49.344;11.120;2023-02-19T04:39:45;9.30;99.90
18218;DHT22;9234;49.344;11.120;2023-02-19T04:42:13;9.30;99.90
18218;DHT22;9234;49.344;11.120;2023-02-19T04:44:42;9.30;99.90
18218;DHT22;9234;49.344;11.120;2023-02-19T04:47:10;9.30;99.90
18218;DHT22;9234;49.344;11.120;2023-02-19T04:49:38;9.30;99.90
18218;DHT22;9234;49.344;11.120;2023-02-19T04:52:07;9.30;99.90
18218;DHT22;9234;49.344;11.120;2023-02-19T04:54:35;9.30;99.90
18218;DHT22;9234;49.344;11.120;2023-02-19T04:57:05;9.20;99.90
18218;DHT22;9234;49.344;11.120;2023-02-19T04:59:33;9.30;99.90
18218;DHT22;9234;49.344;11.120;2023-02-19T05:02:01;9.30;99.90
18218;DHT22;9234;49.344;11.120;2023-02-19T05:04:29;9.30;99.90
18218;DHT22;9234;49.344;11.120;2023-02-19T05:06:58;9.30;99.90
18218;DHT22;9234;49.344;11.120;2023-02-19T05:09:26;9.30;99.90
18218;DHT22;9234;49.344;11.120;2023-02-19T05:11:54;9.30;99.90
18218;DHT22;9234;49.344;11.120;2023-02-19T05:14:24;9.30;99.90
18218;DHT22;9234;49.344;11.120;2023-02-19T05:16:52;9.20;99.90
18218;DHT22;9234;49.344;11.120;2023-02-19T05:19:20;9.20;99.90
18218;DHT22;9234;49.344;11.120;2023-02-19T05:21:48;9.20;99.90
18218;DHT22;9234;49.344;11.120;2023-02-19T05:24:17;9.20;99.90
18218;DHT22;9234;49.344;11.120;2023-02-19T05:26:45;9.20;99.90
18218;DHT22;9234;49.344;11.120;2023-02-19T05:29:14;9.20;99.90
18218;DHT22;9234;49.344;11.120;2023-02-19T05:31:44;9.20;99.90
18218;DHT22;9234;49.344;11.120;2023-02-19T05:34:12;9.20;99.90
18218;DHT22;9234;49.344;11.120;2023-02-19T05:36:40;9.20;99.90
18218;DHT22;9234;49.344;11.120;2023-02-19T05:39:10;9.20;99.90
18218;DHT22;9234;49.344;11.120;2023-02-19T05:41:38;9.20;99.90
18218;DHT22;9234;49.344;11.120;2023-02-19T05:44:09;9.20;99.90
18218;DHT22;9234;49.344;11.120;2023-02-19T05:46:37;9.20;99.90
18218;DHT22;9234;49.344;11.120;2023-02-19T05:49:07;9.20;99.90
18218;DHT22;9234;49.344;11.120;2023-02-19T05:51:35;9.20;99.90
18218;DHT22;9234;49.344;11.120;2023-02-19T05:54:04;9.20;99.90
18218;DHT22;9234;49.344;11.120;2023-02-19T05:56:34;9.20;99.90
18218;DHT22;9234;49.344;11.120;2023-02-19T05:59:06;9.20;99.90
18218;DHT22;9234;49.344;11.120;2023-02-19T06:01:41;9.20;99.90
18218;DHT22;9234;49.344;11.120;2023-02-19T06:04:11;9.20;99.90
18218;DHT22;9234;49.344;11.120;2023-02-19T06:06:41;9.20;99.90
18218;DHT22;9234;49.344;11.120;2023-02-19T06:09:09;9.30;99.90
18218;DHT22;9234;49.344;11.120;2023-02-19T06:11:38;9.30;99.90
18218;DHT22;9234;49.344;11.120;2023-02-19T06:14:06;9.40;99.90
18218;DHT22;9234;49.344;11.120;2023-02-19T06:16:35;9.30;99.90
18218;DHT22;9234;49.344;11.120;2023-02-19T06:19:03;9.40;99.90
18218;DHT22;9234;49.344;11.120;2023-02-19T06:21:33;9.40;99.90
18218;DHT22;9234;49.344;11.120;2023-02-19T06:24:05;9.30;99.90
18218;DHT22;9234;49.344;11.120;2023-02-19T06:26:34;9.30;99.90
18218;DHT22;9234;49.344;11.120;2023-02-19T06:29:03;9.30;99.90
18218;DHT22;9234;49.344;11.120;2023-02-19T06:31:31;9.30;99.90
18218;DHT22;9234;49.344;11.120;2023-02-19T06:34:02;9.30;99.90
18218;DHT22;9234;49.344;11.120;2023-02-19T06:36:33;9.20;99.90
18218;DHT22;9234;49.344;11.120;2023-02-19T06:39:02;9.20;99.90
18218;DHT22;9234;49.344;11.120;2023-02-19T06:41:32;9.20;99.90
18218;DHT22;9234;49.344;11.120;2023-02-19T06:44:00;9.20;99.90
18218;DHT22;9234;49.344;11.120;2023-02-19T06:46:28;9.30;99.90
18218;DHT22;9234;49.344;11.120;2023-02-19T06:48:57;9.30;99.90
18218;DHT22;9234;49.344;11.120;2023-02-19T06:51:25;9.30;99.90
18218;DHT22;9234;49.344;11.120;2023-02-19T06:53:56;9.30;99.90
18218;DHT22;9234;49.344;11.120;2023-02-19T06:56:26;9.30;99.90
18218;DHT22;9234;49.344;11.120;2023-02-19T06:58:57;9.30;99.90
18218;DHT22;9234;49.344;11.120;2023-02-19T07:01:28;9.30;99.90
18218;DHT22;9234;49.344;11.120;2023-02-19T07:03:57;9.30;99.90
18218;DHT22;9234;49.344;11.120;2023-02-19T07:06:26;9.30;99.90
18218;DHT22;9234;49.344;11.120;2023-02-19T07:08:57;9.30;99.90
18218;DHT22;9234;49.344;11.120;2023-02-19T07:11:28;9.40;99.90
18218;DHT22;9234;49.344;11.120;2023-02-19T07:13:59;9.40;99.90
18218;DHT22;9234;49.344;11.120;2023-02-19T07:16:29;9.40;99.90
18218;DHT22;9234;49.344;11.120;2023-02-19T07:18:58;9.40;99.90
18218;DHT22;9234;49.344;11.120;2023-02-19T07:21:28;9.40;99.90
18218;DHT22;9234;49.344;11.120;2023-02-19T07:23:57;9.40;99.90
18218;DHT22;9234;49.344;11.120;2023-02-19T07:26:26;9.40;99.90
18218;DHT22;9234;49.344;11.120;2023-02-19T07:28:54;9.50;99.90
18218;DHT22;9234;49.344;11.120;2023-02-19T07:31:23;9.50;99.90
18218;DHT22;9234;49.344;11.120;2023-02-19T07:33:52;9.40;99.90
18218;DHT22;9234;49.344;11.120;2023-02-19T07:36:21;9.40;99.90
18218;DHT22;9234;49.344;11.120;2023-02-19T07:38:54;9.50;99.90
18218;DHT22;9234;49.344;11.120;2023-02-19T07:41:25;9.50;99.90
18218;DHT22;9234;49.344;11.120;2023-02-19T07:43:56;9.50;99.90
18218;DHT22;9234;49.344;11.120;2023-02-19T07:46:25;9.50;99.90
18218;DHT22;9234;49.344;11.120;2023-02-19T07:48:53;9.50;99.90
18218;DHT22;9234;49.344;11.120;2023-02-19T07:51:22;9.50;99.90
18218;DHT22;9234;49.344;11.120;2023-02-19T07:53:50;9.50;99.90
18218;DHT22;9234;49.344;11.120;2023-02-19T07:56:19;9.60;99.90
18218;DHT22;9234;49.344;11.120;2023-02-19T07:58:49;9.60;99.90
18218;DHT22;9234;49.344;11.120;2023-02-19T08:01:19;9.60;99.90
18218;DHT22;9234;49.344;11.120;2023-02-19T08:04:11;9.70;99.90
18218;DHT22;9234;49.344;11.120;2023-02-19T08:06:39;9.70;99.90
18218;DHT22;9234;49.344;11.120;2023-02-19T08:09:08;9.70;99.90
18218;DHT22;9234;49.344;11.120;2023-02-19T08:11:37;9.70;99.90
18218;DHT22;9234;49.344;11.120;2023-02-19T08:14:25;9.70;99.90
18218;DHT22;9234;49.344;11.120;2023-02-19T08:16:54;9.70;99.90
18218;DHT22;9234;49.344;11.120;2023-02-19T08:19:23;9.70;99.90
18218;DHT22;9234;49.344;11.120;2023-02-19T08:21:51;9.70;99.90
18218;DHT22;9234;49.344;11.120;2023-02-19T08:24:20;9.80;99.90
18218;DHT22;9234;49.344;11.120;2023-02-19T08:26:48;9.90;99.90
18218;DHT22;9234;49.344;11.120;2023-02-19T08:29:16;9.80;99.90
18218;DHT22;9234;49.344;11.120;2023-02-19T08:31:46;9.80;99.90
18218;DHT22;9234;49.344;11.120;2023-02-19T08:34:14;9.90;99.90
18218;DHT22;9234;49.344;11.120;2023-02-19T08:36:42;9.90;99.90
18218;DHT22;9234;49.344;11.120;2023-02-19T08:39:11;10.00;99.90
18218;DHT22;9234;49.344;11.120;2023-02-19T08:41:39;10.00;99.90
18218;DHT22;9234;49.344;11.120;2023-02-19T08:44:07;10.00;99.90
18218;DHT22;9234;49.344;11.120;2023-02-19T08:46:35;9.90;99.90
18218;DHT22;9234;49.344;11.120;2023-02-19T08:49:05;9.90;99.90
18218;DHT22;9234;49.344;11.120;2023-02-19T08:51:33;9.90;99.90
18218;DHT22;9234;49.344;11.120;2023-02-19T08:54:02;10.00;99.90
18218;DHT22;9234;49.344;11.120;2023-02-19T08:56:33;9.90;99.90
18218;DHT22;9234;49.344;11.120;2023-02-19T08:59:01;10.00;99.90
18218;DHT22;9234;49.344;11.120;2023-02-19T09:01:29;10.10;99.90
18218;DHT22;9234;49.344;11.120;2023-02-19T09:03:57;10.10;99.90
18218;DHT22;9234;49.344;11.120;2023-02-19T09:06:27;10.10;99.90
18218;DHT22;9234;49.344;11.120;2023-02-19T09:08:55;10.10;99.90
18218;DHT22;9234;49.344;11.120;2023-02-19T09:11:23;10.10;99.90
18218;DHT22;9234;49.344;11.120;2023-02-19T09:13:54;10.20;99.90
18218;DHT22;9234;49.344;11.120;2023-02-19T09:16:23;10.20;99.90
18218;DHT22;9234;49.344;11.120;2023-02-19T09:18:51;10.20;99.90
18218;DHT22;9234;49.344;11.120;2023-02-19T09:21:20;10.20;99.90
18218;DHT22;9234;49.344;11.120;2023-02-19T09:23:49;10.30;99.90
18218;DHT22;9234;49.344;11.120;2023-02-19T09:26:17;10.30;99.90
18218;DHT22;9234;49.344;11.120;2023-02-19T09:28:46;10.40;99.90
18218;DHT22;9234;49.344;11.120;2023-02-19T09:31:15;10.40;99.90
18218;DHT22;9234;49.344;11.120;2023-02-19T09:33:44;10.40;99.90
18218;DHT22;9234;49.344;11.120;2023-02-19T09:36:13;10.40;99.90
18218;DHT22;9234;49.344;11.120;2023-02-19T09:38:43;10.40;99.90
18218;DHT22;9234;49.344;11.120;2023-02-19T09:41:17;10.40;99.90
18218;DHT22;9234;49.344;11.120;2023-02-19T09:43:51;10.30;99.90
18218;DHT22;9234;49.344;11.120;2023-02-19T09:46:24;10.30;99.90
18218;DHT22;9234;49.344;11.120;2023-02-19T09:49:02;10.30;99.90
18218;DHT22;9234;49.344;11.120;2023-02-19T09:51:35;10.30;99.90
18218;DHT22;9234;49.344;11.120;2023-02-19T09:54:12;10.30;99.90
18218;DHT22;9234;49.344;11.120;2023-02-19T09:56:48;10.30;99.90
18218;DHT22;9234;49.344;11.120;2023-02-19T09:59:19;10.40;99.90
18218;DHT22;9234;49.344;11.120;2023-02-19T10:01:56;10.50;99.90
18218;DHT22;9234;49.344;11.120;2023-02-19T10:04:30;10.60;99.90
18218;DHT22;9234;49.344;11.120;2023-02-19T10:06:58;10.60;99.90
18218;DHT22;9234;49.344;11.120;2023-02-19T10:09:30;10.60;99.90
18218;DHT22;9234;49.344;11.120;2023-02-19T10:12:00;10.60;99.90
18218;DHT22;9234;49.344;11.120;2023-02-19T10:14:31;10.60;99.90
18218;DHT22;9234;49.344;11.120;2023-02-19T10:17:04;10.60;99.90
18218;DHT22;9234;49.344;11.120;2023-02-19T10:19:34;10.60;99.90
18218;DHT22;9234;49.344;11.120;2023-02-19T10:22:03;10.60;99.90
18218;DHT22;9234;49.344;11.120;2023-02-19T10:24:31;10.60;99.90
18218;DHT22;9234;49.344;11.120;2023-02-19T10:27:04;10.50;99.90
18218;DHT22;9234;49.344;11.120;2023-02-19T10:29:37;10.60;99.90
18218;DHT22;9234;49.344;11.120;2023-02-19T10:32:16;10.60;99.90
18218;DHT22;9234;49.344;11.120;2023-02-19T10:35:07;10.60;99.90
18218;DHT22;9234;49.344;11.120;2023-02-19T10:37:42;10.60;99.90
18218;DHT22;9234;49.344;11.120;2023-02-19T10:40:14;10.50;99.90
18218;DHT22;9234;49.344;11.120;2023-02-19T10:42:46;10.50;99.90
18218;DHT22;9234;49.344;11.120;2023-02-19T10:45:18;10.50;99.90
18218;DHT22;9234;49.344;11.120;2023-02-19T10:47:50;10.50;99.90
18218;DHT22;9234;49.344;11.120;2023-02-19T10:50:25;10.50;99.90
18218;DHT22;9234;49.344;11.120;2023-02-19T10:52:58;10.50;99.90
18218;DHT22;9234;49.344;11.120;2023-02-19T10:55:31;10.50;99.90
18218;DHT22;9234;49.344;11.120;2023-02-19T10:58:22;10.40;99.90
18218;DHT22;9234;49.344;11.120;2023-02-19T11:01:11;10.40;99.90
18218;DHT22;9234;49.344;11.120;2023-02-19T11:03:47;10.40;99.90
18218;DHT22;9234;49.344;11.120;2023-02-19T11:06:19;10.50;99.90
18218;DHT22;9234;49.344;11.120;2023-02-19T11:08:54;10.40;99.90
18218;DHT22;9234;49.344;11.120;2023-02-19T11:11:27;10.40;99.90
18218;DHT22;9234;49.344;11.120;2023-02-19T11:14:03;10.40;99.90
18218;DHT22;9234;49.344;11.120;2023-02-19T11:16:42;10.50;99.90
18218;DHT22;9234;49.344;11.120;2023-02-19T11:19:26;10.50;99.90
18218;DHT22;9234;49.344;11.120;2023-02-19T11:21:58;10.50;99.90
18218;DHT22;9234;49.344;11.120;2023-02-19T11:24:31;10.60;99.90
18218;DHT22;9234;49.344;11.120;2023-02-19T11:27:04;10.60;99.90
18218;DHT22;9234;49.344;11.120;2023-02-19T11:29:45;10.60;99.90
18218;DHT22;9234;49.344;11.120;2023-02-19T11:32:25;10.60;99.90
18218;DHT22;9234;49.344;11.120;2023-02-19T11:35:16;10.50;99.90
18218;DHT22;9234;49.344;11.120;2023-02-19T11:37:56;10.50;99.90
18218;DHT22;9234;49.344;11.120;2023-02-19T11:40:39;10.50;99.90
18218;DHT22;9234;49.344;11.120;2023-02-19T11:43:26;10.40;99.90
18218;DHT22;9234;49.344;11.120;2023-02-19T11:46:11;10.30;99.90
18218;DHT22;9234;49.344;11.120;2023-02-19T11:49:03;10.30;99.90
18218;DHT22;9234;49.344;11.120;2023-02-19T11:51:57;10.30;99.90
18218;DHT22;9234;49.344;11.120;2023-02-19T11:54:45;10.30;99.90
18218;DHT22;9234;49.344;11.120;2023-02-19T11:57:37;10.30;99.90
18218;DHT22;9234;49.344;11.120;2023-02-19T12:00:22;10.30;99.90
18218;DHT22;9234;49.344;11.120;2023-02-19T12:03:17;10.30;99.90
18218;DHT22;9234;49.344;11.120;2023-02-19T12:06:06;10.30;99.90
18218;DHT22;9234;49.344;11.120;2023-02-19T12:08:56;10.30;99.90
18218;DHT22;9234;49.344;11.120;2023-02-19T12:12:06;10.30;99.90
18218;DHT22;9234;49.344;11.120;2023-02-19T12:18:43;10.50;99.90
18218;DHT22;9234;49.344;11.120;2023-02-19T12:21:37;10.60;99.90
18218;DHT22;9234;49.344;11.120;2023-02-19T12:24:46;10.60;99.90
18218;DHT22;9234;49.344;11.120;2023-02-19T12:27:41;10.80;99.90
18218;DHT22;9234;49.344;11.120;2023-02-19T12:30:30;11.00;99.90
18218;DHT22;9234;49.344;11.120;2023-02-19T12:33:24;11.10;99.90
18218;DHT22;9234;49.344;11.120;2023-02-19T12:36:13;11.30;99.90
18218;DHT22;9234;49.344;11.120;2023-02-19T12:38:58;11.40;99.90
18218;DHT22;9234;49.344;11.120;2023-02-19T12:41:38;11.40;99.90
18218;DHT22;9234;49.344;11.120;2023-02-19T12:44:21;11.50;99.90
18218;DHT22;9234;49.344;11.120;2023-02-19T12:47:14;11.50;99.90
18218;DHT22;9234;49.344;11.120;2023-02-19T12:49:49;11.50;99.90
18218;DHT22;9234;49.344;11.120;2023-02-19T12:52:32;11.50;99.90
18218;DHT22;9234;49.344;11.120;2023-02-19T12:55:15;11.50;99.90
18218;DHT22;9234;49.344;11.120;2023-02-19T12:57:47;11.50;99.90
18218;DHT22;9234;49.344;11.120;2023-02-19T13:00:28;11.50;99.90
18218;DHT22;9234;49.344;11.120;2023-02-19T13:03:07;11.50;99.90
18218;DHT22;9234;49.344;11.120;2023-02-19T13:05:51;11.50;99.90
18218;DHT22;9234;49.344;11.120;2023-02-19T13:08:28;11.50;99.90
18218;DHT22;9234;49.344;11.120;2023-02-19T13:11:05;11.50;99.90
18218;DHT22;9234;49.344;11.120;2023-02-19T13:13:41;11.40;99.90
18218;DHT22;9234;49.344;11.120;2023-02-19T13:16:14;11.30;99.90
18218;DHT22;9234;49.344;11.120;2023-02-19T13:18:47;11.30;99.90
18218;DHT22;9234;49.344;11.120;2023-02-19T13:21:21;11.20;99.90
18218;DHT22;9234;49.344;11.120;2023-02-19T13:24:14;11.10;99.90
18218;DHT22;9234;49.344;11.120;2023-02-19T13:30:07;11.10;99.90
18218;DHT22;9234;49.344;11.120;2023-02-19T13:32:56;11.10;99.90
18218;DHT22;9234;49.344;11.120;2023-02-19T13:35:53;11.10;99.90
18218;DHT22;9234;49.344;11.120;2023-02-19T13:38:37;11.00;99.90
18218;DHT22;9234;49.344;11.120;2023-02-19T13:41:17;11.00;99.90
18218;DHT22;9234;49.344;11.120;2023-02-19T13:43:54;11.00;99.90
18218;DHT22;9234;49.344;11.120;2023-02-19T13:46:33;10.90;99.90
18218;DHT22;9234;49.344;11.120;2023-02-19T13:49:24;10.90;99.90
18218;DHT22;9234;49.344;11.120;2023-02-19T13:52:39;10.80;99.90
18218;DHT22;9234;49.344;11.120;2023-02-19T13:55:50;10.80;99.90
18218;DHT22;9234;49.344;11.120;2023-02-19T14:02:11;10.90;99.90
18218;DHT22;9234;49.344;11.120;2023-02-19T14:04:54;10.90;99.90
18218;DHT22;9234;49.344;11.120;2023-02-19T14:13:59;10.90;99.90
18218;DHT22;9234;49.344;11.120;2023-02-19T14:16:48;10.80;99.90
18218;DHT22;9234;49.344;11.120;2023-02-19T14:19:45;10.80;99.90
18218;DHT22;9234;49.344;11.120;2023-02-19T14:25:48;10.60;99.90
18218;DHT22;9234;49.344;11.120;2023-02-19T14:28:36;10.50;99.90
18218;DHT22;9234;49.344;11.120;2023-02-19T14:31:14;10.50;99.90
18218;DHT22;9234;49.344;11.120;2023-02-19T14:33:49;10.40;99.90
18218;DHT22;9234;49.344;11.120;2023-02-19T14:36:34;10.30;99.90
18218;DHT22;9234;49.344;11.120;2023-02-19T14:39:13;10.30;99.90
18218;DHT22;9234;49.344;11.120;2023-02-19T14:41:45;10.20;99.90
18218;DHT22;9234;49.344;11.120;2023-02-19T14:44:21;10.10;99.90
18218;DHT22;9234;49.344;11.120;2023-02-19T14:46:55;10.10;99.90
18218;DHT22;9234;49.344;11.120;2023-02-19T14:49:30;10.10;99.90
18218;DHT22;9234;49.344;11.120;2023-02-19T14:52:05;10.10;99.90
18218;DHT22;9234;49.344;11.120;2023-02-19T14:54:41;10.10;99.90
18218;DHT22;9234;49.344;11.120;2023-02-19T14:57:17;10.10;99.90
18218;DHT22;9234;49.344;11.120;2023-02-19T14:59:55;10.20;99.90
18218;DHT22;9234;49.344;11.120;2023-02-19T15:02:26;10.40;99.90
18218;DHT22;9234;49.344;11.120;2023-02-19T15:04:57;10.40;99.90
18218;DHT22;9234;49.344;11.120;2023-02-19T15:07:28;10.50;99.90
18218;DHT22;9234;49.344;11.120;2023-02-19T15:10:02;10.50;99.90
18218;DHT22;9234;49.344;11.120;2023-02-19T15:12:37;10.50;99.90
18218;DHT22;9234;49.344;11.120;2023-02-19T15:15:16;10.60;99.90
18218;DHT22;9234;49.344;11.120;2023-02-19T15:17:47;10.70;99.90
18218;DHT22;9234;49.344;11.120;2023-02-19T15:20:19;10.80;99.90
18218;DHT22;9234;49.344;11.120;2023-02-19T15:22:51;11.00;99.90
18218;DHT22;9234;49.344;11.120;2023-02-19T15:25:22;11.10;99.90
18218;DHT22;9234;49.344;11.120;2023-02-19T15:27:53;11.20;99.90
18218;DHT22;9234;49.344;11.120;2023-02-19T15:30:26;11.20;99.90
18218;DHT22;9234;49.344;11.120;2023-02-19T15:32:57;11.10;99.90
18218;DHT22;9234;49.344;11.120;2023-02-19T15:35:27;11.00;99.90
18218;DHT22;9234;49.344;11.120;2023-02-19T15:38:00;10.90;99.90
18218;DHT22;9234;49.344;11.120;2023-02-19T15:40:29;10.80;99.90
18218;DHT22;9234;49.344;11.120;2023-02-19T15:42:59;10.70;99.90
18218;DHT22;9234;49.344;11.120;2023-02-19T15:45:33;10.50;99.90
18218;DHT22;9234;49.344;11.120;2023-02-19T15:48:08;10.40;99.90
18218;DHT22;9234;49.344;11.120;2023-02-19T15:50:42;10.30;99.90
18218;DHT22;9234;49.344;11.120;2023-02-19T15:53:16;10.20;99.90
18218;DHT22;9234;49.344;11.120;2023-02-19T15:56:00;10.10;99.90
18218;DHT22;9234;49.344;11.120;2023-02-19T15:58:37;10.00;99.90
18218;DHT22;9234;49.344;11.120;2023-02-19T16:01:15;10.00;99.90
18218;DHT22;9234;49.344;11.120;2023-02-19T16:03:47;9.90;99.90
18218;DHT22;9234;49.344;11.120;2023-02-19T16:06:17;9.80;99.90
18218;DHT22;9234;49.344;11.120;2023-02-19T16:08:58;9.80;99.90
18218;DHT22;9234;49.344;11.120;2023-02-19T16:11:34;9.70;99.90
18218;DHT22;9234;49.344;11.120;2023-02-19T16:14:20;9.70;99.90
18218;DHT22;9234;49.344;11.120;2023-02-19T16:16:54;9.60;99.90
18218;DHT22;9234;49.344;11.120;2023-02-19T16:19:25;9.60;99.90
18218;DHT22;9234;49.344;11.120;2023-02-19T16:21:55;9.60;99.90
18218;DHT22;9234;49.344;11.120;2023-02-19T16:24:27;9.50;99.90
18218;DHT22;9234;49.344;11.120;2023-02-19T16:26:58;9.50;99.90
18218;DHT22;9234;49.344;11.120;2023-02-19T16:29:29;9.40;99.90
18218;DHT22;9234;49.344;11.120;2023-02-19T16:32:02;9.40;99.90
18218;DHT22;9234;49.344;11.120;2023-02-19T16:34:33;9.30;99.90
18218;DHT22;9234;49.344;11.120;2023-02-19T16:37:33;9.30;99.90
18218;DHT22;9234;49.344;11.120;2023-02-19T16:43:40;9.30;99.90
18218;DHT22;9234;49.344;11.120;2023-02-19T16:46:11;9.20;99.90
18218;DHT22;9234;49.344;11.120;2023-02-19T16:48:41;9.20;99.90
18218;DHT22;9234;49.344;11.120;2023-02-19T16:51:14;9.20;99.90
18218;DHT22;9234;49.344;11.120;2023-02-19T16:53:48;9.10;99.90